sensor_id;sensor_type;location;lat;lon;timestamp;P1;durP1;ratioP1;P2;durP2;ratioP2
30133;SDS011;16946;49.984;10.672;2023-02-15T00:00:13;46.17;;;23.80;;
30133;SDS011;16946;49.984;10.672;2023-02-15T00:00:44;59.23;;;26.27;;
30133;SDS011;16946;49.984;10.672;2023-02-15T00:01:15;44.43;;;23.57;;
30133;SDS011;16946;49.984;10.672;2023-02-15T00:01:46;42.30;;;23.27;;
30133;SDS011;16946;49.984;10.672;2023-02-15T00:02:17;47.85;;;24.80;;
30133;SDS011;16946;49.984;10.672;2023-02-15T00:02:49;48.08;;;24.05;;
30133;SDS011;16946;49.984;10.672;2023-02-15T00:03:20;43.77;;;23.50;;
30133;SDS011;16946;49.984;10.672;2023-02-15T00:03:51;45.63;;;24.13;;
30133;SDS011;16946;49.984;10.672;2023-02-15T00:04:22;58.40;;;25.53;;
30133;SDS011;16946;49.984;10.672;2023-02-15T00:04:54;49.92;;;25.83;;
30133;SDS011;16946;49.984;10.672;2023-02-15T00:05:25;49.35;;;23.77;;
30133;SDS011;16946;49.984;10.672;2023-02-15T00:05:56;49.33;;;24.03;;
30133;SDS011;16946;49.984;10.672;2023-02-15T00:06:27;48.58;;;24.50;;
30133;SDS011;16946;49.984;10.672;2023-02-15T00:07:01;47.67;;;23.80;;
30133;SDS011;16946;49.984;10.672;2023-02-15T00:07:32;41.83;;;22.65;;
30133;SDS011;16946;49.984;10.672;2023-02-15T00:08:02;44.97;;;25.33;;
30133;SDS011;16946;49.984;10.672;2023-02-15T00:08:33;45.00;;;24.27;;
30133;SDS011;16946;49.984;10.672;2023-02-15T00:09:04;41.73;;;23.23;;
30133;SDS011;16946;49.984;10.672;2023-02-15T00:09:34;42.77;;;23.13;;
30133;SDS011;16946;49.984;10.672;2023-02-15T00:10:05;38.97;;;21.60;;
30133;SDS011;16946;49.984;10.672;2023-02-15T00:10:36;46.42;;;25.25;;
30133;SDS011;16946;49.984;10.672;2023-02-15T00:11:10;41.40;;;23.00;;
30133;SDS011;16946;49.984;10.672;2023-02-15T00:11:43;43.50;;;23.83;;
30133;SDS011;16946;49.984;10.672;2023-02-15T00:12:19;45.95;;;23.45;;
30133;SDS011;16946;49.984;10.672;2023-02-15T00:12:50;39.30;;;23.73;;
30133;SDS011;16946;49.984;10.672;2023-02-15T00:13:20;53.50;;;25.37;;
30133;SDS011;16946;49.984;10.672;2023-02-15T00:13:51;50.17;;;25.40;;
30133;SDS011;16946;49.984;10.672;2023-02-15T00:14:22;49.40;;;23.20;;
30133;SDS011;16946;49.984;10.672;2023-02-15T00:14:53;51.63;;;24.85;;
30133;SDS011;16946;49.984;10.672;2023-02-15T00:15:24;46.13;;;24.07;;
30133;SDS011;16946;49.984;10.672;2023-02-15T00:15:59;55.70;;;25.48;;
30133;SDS011;16946;49.984;10.672;2023-02-15T00:16:31;44.97;;;23.70;;
30133;SDS011;16946;49.984;10.672;2023-02-15T00:17:02;49.88;;;25.25;;
30133;SDS011;16946;49.984;10.672;2023-02-15T00:17:33;52.90;;;24.43;;
30133;SDS011;16946;49.984;10.672;2023-02-15T00:18:03;46.37;;;23.40;;
30133;SDS011;16946;49.984;10.672;2023-02-15T00:18:34;40.77;;;22.87;;
30133;SDS011;16946;49.984;10.672;2023-02-15T00:19:05;42.53;;;23.20;;
30133;SDS011;16946;49.984;10.672;2023-02-15T00:19:36;44.55;;;23.02;;
30133;SDS011;16946;49.984;10.672;2023-02-15T00:20:06;42.17;;;23.17;;
30133;SDS011;16946;49.984;10.672;2023-02-15T00:20:37;48.65;;;25.00;;
30133;SDS011;16946;49.984;10.672;2023-02-15T00:21:09;50.57;;;24.27;;
30133;SDS011;16946;49.984;10.672;2023-02-15T00:21:39;44.13;;;23.10;;
30133;SDS011;16946;49.984;10.672;2023-02-15T00:22:10;39.03;;;22.17;;
30133;SDS011;16946;49.984;10.672;2023-02-15T00:22:41;39.20;;;23.00;;
30133;SDS011;16946;49.984;10.672;2023-02-15T00:23:11;43.47;;;22.00;;
30133;SDS011;16946;49.984;10.672;2023-02-15T00:23:42;41.97;;;23.43;;
30133;SDS011;16946;49.984;10.672;2023-02-15T00:24:14;45.70;;;22.93;;
30133;SDS011;16946;49.984;10.672;2023-02-15T00:24:45;42.55;;;23.10;;
30133;SDS011;16946;49.984;10.672;2023-02-15T00:25:16;45.83;;;23.33;;
30133;SDS011;16946;49.984;10.672;2023-02-15T00:25:46;46.20;;;23.00;;
30133;SDS011;16946;49.984;10.672;2023-02-15T00:26:17;44.03;;;23.17;;
30133;SDS011;16946;49.984;10.672;2023-02-15T00:26:48;42.40;;;23.30;;
30133;SDS011;16946;49.984;10.672;2023-02-15T00:27:19;45.55;;;23.08;;
30133;SDS011;16946;49.984;10.672;2023-02-15T00:27:49;51.10;;;23.93;;
30133;SDS011;16946;49.984;10.672;2023-02-15T00:28:20;59.07;;;25.00;;
30133;SDS011;16946;49.984;10.672;2023-02-15T00:28:51;48.58;;;22.90;;
30133;SDS011;16946;49.984;10.672;2023-02-15T00:29:22;43.30;;;22.30;;
30133;SDS011;16946;49.984;10.672;2023-02-15T00:29:53;39.93;;;21.00;;
30133;SDS011;16946;49.984;10.672;2023-02-15T00:30:23;39.07;;;22.00;;
30133;SDS011;16946;49.984;10.672;2023-02-15T00:30:54;35.63;;;20.47;;
30133;SDS011;16946;49.984;10.672;2023-02-15T00:31:24;38.97;;;21.97;;
30133;SDS011;16946;49.984;10.672;2023-02-15T00:31:56;41.20;;;22.88;;
30133;SDS011;16946;49.984;10.672;2023-02-15T00:32:26;45.73;;;23.20;;
30133;SDS011;16946;49.984;10.672;2023-02-15T00:32:57;35.83;;;21.37;;
30133;SDS011;16946;49.984;10.672;2023-02-15T00:33:27;43.33;;;22.67;;
30133;SDS011;16946;49.984;10.672;2023-02-15T00:34:02;46.30;;;22.93;;
30133;SDS011;16946;49.984;10.672;2023-02-15T00:34:33;42.20;;;22.80;;
30133;SDS011;16946;49.984;10.672;2023-02-15T00:35:04;41.27;;;22.17;;
30133;SDS011;16946;49.984;10.672;2023-02-15T00:35:36;41.72;;;22.45;;
30133;SDS011;16946;49.984;10.672;2023-02-15T00:36:07;38.13;;;21.43;;
30133;SDS011;16946;49.984;10.672;2023-02-15T00:36:38;38.40;;;22.58;;
30133;SDS011;16946;49.984;10.672;2023-02-15T00:37:09;40.47;;;20.73;;
30133;SDS011;16946;49.984;10.672;2023-02-15T00:37:39;47.47;;;23.97;;
30133;SDS011;16946;49.984;10.672;2023-02-15T00:38:10;44.83;;;22.97;;
30133;SDS011;16946;49.984;10.672;2023-02-15T00:38:42;64.60;;;24.67;;
30133;SDS011;16946;49.984;10.672;2023-02-15T00:39:13;43.63;;;22.00;;
30133;SDS011;16946;49.984;10.672;2023-02-15T00:39:44;45.65;;;23.30;;
30133;SDS011;16946;49.984;10.672;2023-02-15T00:40:15;58.97;;;26.00;;
30133;SDS011;16946;49.984;10.672;2023-02-15T00:40:51;70.47;;;26.07;;
30133;SDS011;16946;49.984;10.672;2023-02-15T00:41:22;49.45;;;23.70;;
30133;SDS011;16946;49.984;10.672;2023-02-15T00:41:53;48.27;;;23.00;;
30133;SDS011;16946;49.984;10.672;2023-02-15T00:42:24;50.10;;;24.30;;
30133;SDS011;16946;49.984;10.672;2023-02-15T00:42:54;54.97;;;22.93;;
30133;SDS011;16946;49.984;10.672;2023-02-15T00:43:25;44.03;;;22.97;;
30133;SDS011;16946;49.984;10.672;2023-02-15T00:43:57;56.63;;;24.20;;
30133;SDS011;16946;49.984;10.672;2023-02-15T00:44:27;51.93;;;23.43;;
30133;SDS011;16946;49.984;10.672;2023-02-15T00:44:58;52.60;;;24.13;;
30133;SDS011;16946;49.984;10.672;2023-02-15T00:45:28;45.97;;;22.73;;
30133;SDS011;16946;49.984;10.672;2023-02-15T00:45:59;70.27;;;26.93;;
30133;SDS011;16946;49.984;10.672;2023-02-15T00:46:30;53.47;;;23.95;;
30133;SDS011;16946;49.984;10.672;2023-02-15T00:47:01;50.42;;;22.95;;
30133;SDS011;16946;49.984;10.672;2023-02-15T00:47:32;42.87;;;22.37;;
30133;SDS011;16946;49.984;10.672;2023-02-15T00:48:02;55.03;;;26.23;;
30133;SDS011;16946;49.984;10.672;2023-02-15T00:48:33;49.20;;;24.80;;
30133;SDS011;16946;49.984;10.672;2023-02-15T00:49:04;51.23;;;24.10;;
30133;SDS011;16946;49.984;10.672;2023-02-15T00:49:35;44.65;;;23.00;;
30133;SDS011;16946;49.984;10.672;2023-02-15T00:50:05;47.77;;;22.90;;
30133;SDS011;16946;49.984;10.672;2023-02-15T00:50:36;41.00;;;22.50;;
30133;SDS011;16946;49.984;10.672;2023-02-15T00:51:07;40.07;;;21.07;;
30133;SDS011;16946;49.984;10.672;2023-02-15T00:51:38;42.87;;;22.10;;
30133;SDS011;16946;49.984;10.672;2023-02-15T00:52:09;50.10;;;24.02;;
30133;SDS011;16946;49.984;10.672;2023-02-15T00:52:40;42.93;;;22.67;;
30133;SDS011;16946;49.984;10.672;2023-02-15T00:53:10;57.73;;;24.40;;
30133;SDS011;16946;49.984;10.672;2023-02-15T00:53:41;51.57;;;23.43;;
30133;SDS011;16946;49.984;10.672;2023-02-15T00:54:11;36.47;;;20.57;;
30133;SDS011;16946;49.984;10.672;2023-02-15T00:54:42;46.20;;;23.07;;
30133;SDS011;16946;49.984;10.672;2023-02-15T00:55:12;39.53;;;21.00;;
30133;SDS011;16946;49.984;10.672;2023-02-15T00:55:43;52.53;;;24.10;;
30133;SDS011;16946;49.984;10.672;2023-02-15T00:56:14;55.90;;;22.93;;
30133;SDS011;16946;49.984;10.672;2023-02-15T00:56:44;57.87;;;25.63;;
30133;SDS011;16946;49.984;10.672;2023-02-15T00:57:15;63.53;;;24.47;;
30133;SDS011;16946;49.984;10.672;2023-02-15T00:57:45;76.87;;;26.97;;
30133;SDS011;16946;49.984;10.672;2023-02-15T00:58:16;72.10;;;25.47;;
30133;SDS011;16946;49.984;10.672;2023-02-15T00:58:46;73.83;;;26.50;;
30133;SDS011;16946;49.984;10.672;2023-02-15T00:59:17;80.63;;;26.30;;
30133;SDS011;16946;49.984;10.672;2023-02-15T00:59:48;70.60;;;26.03;;
30133;SDS011;16946;49.984;10.672;2023-02-15T01:00:18;50.43;;;23.63;;
30133;SDS011;16946;49.984;10.672;2023-02-15T01:00:49;57.40;;;25.23;;
30133;SDS011;16946;49.984;10.672;2023-02-15T01:01:20;70.75;;;25.23;;
30133;SDS011;16946;49.984;10.672;2023-02-15T01:01:51;66.63;;;25.63;;
30133;SDS011;16946;49.984;10.672;2023-02-15T01:02:22;58.87;;;24.70;;
30133;SDS011;16946;49.984;10.672;2023-02-15T01:02:52;53.27;;;23.57;;
30133;SDS011;16946;49.984;10.672;2023-02-15T01:03:22;63.70;;;26.73;;
30133;SDS011;16946;49.984;10.672;2023-02-15T01:03:53;90.30;;;28.80;;
30133;SDS011;16946;49.984;10.672;2023-02-15T01:04:24;105.97;;;30.63;;
30133;SDS011;16946;49.984;10.672;2023-02-15T01:04:54;96.00;;;27.67;;
30133;SDS011;16946;49.984;10.672;2023-02-15T01:05:25;83.80;;;29.57;;
30133;SDS011;16946;49.984;10.672;2023-02-15T01:05:55;74.07;;;28.13;;
30133;SDS011;16946;49.984;10.672;2023-02-15T01:06:26;65.20;;;26.57;;
30133;SDS011;16946;49.984;10.672;2023-02-15T01:06:56;106.60;;;31.07;;
30133;SDS011;16946;49.984;10.672;2023-02-15T01:07:27;89.77;;;28.07;;
30133;SDS011;16946;49.984;10.672;2023-02-15T01:07:57;91.03;;;27.50;;
30133;SDS011;16946;49.984;10.672;2023-02-15T01:08:29;73.43;;;27.65;;
30133;SDS011;16946;49.984;10.672;2023-02-15T01:09:00;95.22;;;30.92;;
30133;SDS011;16946;49.984;10.672;2023-02-15T01:09:31;107.37;;;31.03;;
30133;SDS011;16946;49.984;10.672;2023-02-15T01:10:01;90.77;;;30.17;;
30133;SDS011;16946;49.984;10.672;2023-02-15T01:10:33;85.23;;;27.87;;
30133;SDS011;16946;49.984;10.672;2023-02-15T01:11:12;95.80;;;30.05;;
30133;SDS011;16946;49.984;10.672;2023-02-15T01:11:44;90.05;;;28.10;;
30133;SDS011;16946;49.984;10.672;2023-02-15T01:12:15;106.73;;;28.77;;
30133;SDS011;16946;49.984;10.672;2023-02-15T01:12:45;98.23;;;29.47;;
30133;SDS011;16946;49.984;10.672;2023-02-15T01:13:15;108.30;;;31.47;;
30133;SDS011;16946;49.984;10.672;2023-02-15T01:13:47;93.28;;;27.10;;
30133;SDS011;16946;49.984;10.672;2023-02-15T01:14:22;75.45;;;27.83;;
30133;SDS011;16946;49.984;10.672;2023-02-15T01:14:53;95.87;;;28.50;;
30133;SDS011;16946;49.984;10.672;2023-02-15T01:15:23;100.03;;;29.27;;
30133;SDS011;16946;49.984;10.672;2023-02-15T01:15:54;96.32;;;30.83;;
30133;SDS011;16946;49.984;10.672;2023-02-15T01:16:27;114.75;;;30.65;;
30133;SDS011;16946;49.984;10.672;2023-02-15T01:16:58;94.10;;;28.20;;
30133;SDS011;16946;49.984;10.672;2023-02-15T01:17:29;76.23;;;28.60;;
30133;SDS011;16946;49.984;10.672;2023-02-15T01:18:00;87.70;;;28.80;;
30133;SDS011;16946;49.984;10.672;2023-02-15T01:18:31;91.33;;;27.40;;
30133;SDS011;16946;49.984;10.672;2023-02-15T01:19:02;78.20;;;26.83;;
30133;SDS011;16946;49.984;10.672;2023-02-15T01:19:33;90.13;;;30.60;;
30133;SDS011;16946;49.984;10.672;2023-02-15T01:20:04;122.07;;;33.90;;
30133;SDS011;16946;49.984;10.672;2023-02-15T01:20:37;107.70;;;33.55;;
30133;SDS011;16946;49.984;10.672;2023-02-15T01:21:11;97.43;;;30.80;;
30133;SDS011;16946;49.984;10.672;2023-02-15T01:21:44;132.48;;;34.95;;
30133;SDS011;16946;49.984;10.672;2023-02-15T01:22:14;157.70;;;35.63;;
30133;SDS011;16946;49.984;10.672;2023-02-15T01:22:45;146.53;;;35.93;;
30133;SDS011;16946;49.984;10.672;2023-02-15T01:23:16;127.47;;;32.73;;
30133;SDS011;16946;49.984;10.672;2023-02-15T01:23:46;153.53;;;37.97;;
30133;SDS011;16946;49.984;10.672;2023-02-15T01:24:17;131.85;;;37.03;;
30133;SDS011;16946;49.984;10.672;2023-02-15T01:24:50;130.13;;;38.33;;
30133;SDS011;16946;49.984;10.672;2023-02-15T01:25:21;150.27;;;39.20;;
30133;SDS011;16946;49.984;10.672;2023-02-15T01:25:53;119.68;;;34.90;;
30133;SDS011;16946;49.984;10.672;2023-02-15T01:26:23;151.07;;;38.20;;
30133;SDS011;16946;49.984;10.672;2023-02-15T01:26:54;151.23;;;37.57;;
30133;SDS011;16946;49.984;10.672;2023-02-15T01:27:24;164.07;;;39.47;;
30133;SDS011;16946;49.984;10.672;2023-02-15T01:27:55;125.57;;;38.00;;
30133;SDS011;16946;49.984;10.672;2023-02-15T01:28:25;174.33;;;40.13;;
30133;SDS011;16946;49.984;10.672;2023-02-15T01:28:56;184.03;;;43.07;;
30133;SDS011;16946;49.984;10.672;2023-02-15T01:29:27;142.77;;;38.30;;
30133;SDS011;16946;49.984;10.672;2023-02-15T01:29:57;132.57;;;37.13;;
30133;SDS011;16946;49.984;10.672;2023-02-15T01:30:28;149.57;;;40.93;;
30133;SDS011;16946;49.984;10.672;2023-02-15T01:30:58;112.47;;;37.63;;
30133;SDS011;16946;49.984;10.672;2023-02-15T01:31:29;161.90;;;41.60;;
30133;SDS011;16946;49.984;10.672;2023-02-15T01:32:00;157.90;;;37.60;;
30133;SDS011;16946;49.984;10.672;2023-02-15T01:32:30;137.93;;;38.77;;
30133;SDS011;16946;49.984;10.672;2023-02-15T01:33:01;121.77;;;37.67;;
30133;SDS011;16946;49.984;10.672;2023-02-15T01:33:32;148.07;;;37.03;;
30133;SDS011;16946;49.984;10.672;2023-02-15T01:34:02;124.63;;;37.30;;
30133;SDS011;16946;49.984;10.672;2023-02-15T01:34:33;160.67;;;39.57;;
30133;SDS011;16946;49.984;10.672;2023-02-15T01:35:03;100.13;;;33.37;;
30133;SDS011;16946;49.984;10.672;2023-02-15T01:35:34;100.67;;;32.13;;
30133;SDS011;16946;49.984;10.672;2023-02-15T01:36:06;146.75;;;38.30;;
30133;SDS011;16946;49.984;10.672;2023-02-15T01:36:37;132.43;;;36.57;;
30133;SDS011;16946;49.984;10.672;2023-02-15T01:37:07;110.57;;;35.03;;
30133;SDS011;16946;49.984;10.672;2023-02-15T01:37:38;100.80;;;34.77;;
30133;SDS011;16946;49.984;10.672;2023-02-15T01:38:09;130.30;;;37.60;;
30133;SDS011;16946;49.984;10.672;2023-02-15T01:38:39;158.80;;;39.03;;
30133;SDS011;16946;49.984;10.672;2023-02-15T01:39:10;132.20;;;35.20;;
30133;SDS011;16946;49.984;10.672;2023-02-15T01:39:41;117.40;;;35.63;;
30133;SDS011;16946;49.984;10.672;2023-02-15T01:40:12;119.27;;;34.50;;
30133;SDS011;16946;49.984;10.672;2023-02-15T01:40:44;102.00;;;33.47;;
30133;SDS011;16946;49.984;10.672;2023-02-15T01:41:15;100.17;;;36.37;;
30133;SDS011;16946;49.984;10.672;2023-02-15T01:41:56;109.88;;;33.90;;
30133;SDS011;16946;49.984;10.672;2023-02-15T01:42:27;133.50;;;35.57;;
30133;SDS011;16946;49.984;10.672;2023-02-15T01:42:58;66.85;;;28.02;;
30133;SDS011;16946;49.984;10.672;2023-02-15T01:43:42;138.10;;;42.00;;
30133;SDS011;16946;49.984;10.672;2023-02-15T01:45:51;102.05;;;29.48;;
30133;SDS011;16946;49.984;10.672;2023-02-15T01:46:23;84.23;;;31.40;;
30133;SDS011;16946;49.984;10.672;2023-02-15T01:46:57;106.15;;;32.22;;
30133;SDS011;16946;49.984;10.672;2023-02-15T01:47:41;94.20;;;32.10;;
30133;SDS011;16946;49.984;10.672;2023-02-15T01:48:59;107.78;;;32.45;;
30133;SDS011;16946;49.984;10.672;2023-02-15T01:49:32;97.32;;;30.10;;
30133;SDS011;16946;49.984;10.672;2023-02-15T01:50:16;80.77;;;28.67;;
30133;SDS011;16946;49.984;10.672;2023-02-15T01:50:56;71.65;;;29.23;;
30133;SDS011;16946;49.984;10.672;2023-02-15T01:51:31;80.32;;;29.13;;
30133;SDS011;16946;49.984;10.672;2023-02-15T01:52:04;74.30;;;29.10;;
30133;SDS011;16946;49.984;10.672;2023-02-15T01:52:36;111.30;;;30.97;;
30133;SDS011;16946;49.984;10.672;2023-02-15T01:53:18;100.65;;;31.05;;
30133;SDS011;16946;49.984;10.672;2023-02-15T01:54:15;71.93;;;26.73;;
30133;SDS011;16946;49.984;10.672;2023-02-15T01:54:48;111.75;;;30.23;;
30133;SDS011;16946;49.984;10.672;2023-02-15T01:55:19;105.13;;;30.23;;
30133;SDS011;16946;49.984;10.672;2023-02-15T01:56:26;75.97;;;27.13;;
30133;SDS011;16946;49.984;10.672;2023-02-15T01:57:19;77.13;;;27.13;;
30133;SDS011;16946;49.984;10.672;2023-02-15T01:57:54;65.75;;;26.30;;
30133;SDS011;16946;49.984;10.672;2023-02-15T01:58:25;92.97;;;31.60;;
30133;SDS011;16946;49.984;10.672;2023-02-15T01:58:59;100.15;;;27.77;;
30133;SDS011;16946;49.984;10.672;2023-02-15T01:59:36;63.72;;;25.63;;
30133;SDS011;16946;49.984;10.672;2023-02-15T02:00:09;83.97;;;29.45;;
30133;SDS011;16946;49.984;10.672;2023-02-15T02:00:40;100.05;;;30.60;;
30133;SDS011;16946;49.984;10.672;2023-02-15T02:01:11;92.23;;;27.90;;
30133;SDS011;16946;49.984;10.672;2023-02-15T02:01:41;80.37;;;28.17;;
30133;SDS011;16946;49.984;10.672;2023-02-15T02:02:13;134.45;;;31.77;;
30133;SDS011;16946;49.984;10.672;2023-02-15T02:02:47;121.97;;;30.65;;
30133;SDS011;16946;49.984;10.672;2023-02-15T02:03:23;115.75;;;31.33;;
30133;SDS011;16946;49.984;10.672;2023-02-15T02:04:46;131.23;;;30.42;;
30133;SDS011;16946;49.984;10.672;2023-02-15T02:05:19;128.98;;;29.70;;
30133;SDS011;16946;49.984;10.672;2023-02-15T02:05:49;119.53;;;30.50;;
30133;SDS011;16946;49.984;10.672;2023-02-15T02:06:20;195.07;;;37.43;;
30133;SDS011;16946;49.984;10.672;2023-02-15T02:06:51;117.53;;;31.93;;
30133;SDS011;16946;49.984;10.672;2023-02-15T02:07:24;155.98;;;33.70;;
30133;SDS011;16946;49.984;10.672;2023-02-15T02:07:59;105.28;;;28.55;;
30133;SDS011;16946;49.984;10.672;2023-02-15T02:08:31;116.78;;;28.48;;
30133;SDS011;16946;49.984;10.672;2023-02-15T02:09:02;116.60;;;28.43;;
30133;SDS011;16946;49.984;10.672;2023-02-15T02:09:34;145.25;;;32.00;;
30133;SDS011;16946;49.984;10.672;2023-02-15T02:10:06;156.02;;;36.10;;
30133;SDS011;16946;49.984;10.672;2023-02-15T02:10:38;129.55;;;32.17;;
30133;SDS011;16946;49.984;10.672;2023-02-15T02:11:12;100.33;;;27.97;;
30133;SDS011;16946;49.984;10.672;2023-02-15T02:11:44;100.28;;;32.70;;
30133;SDS011;16946;49.984;10.672;2023-02-15T02:12:16;85.38;;;28.48;;
30133;SDS011;16946;49.984;10.672;2023-02-15T02:12:48;90.70;;;30.27;;
30133;SDS011;16946;49.984;10.672;2023-02-15T02:13:24;73.28;;;26.02;;
30133;SDS011;16946;49.984;10.672;2023-02-15T02:13:55;86.68;;;26.98;;
30133;SDS011;16946;49.984;10.672;2023-02-15T02:14:26;90.72;;;29.75;;
30133;SDS011;16946;49.984;10.672;2023-02-15T02:14:56;102.53;;;31.37;;
30133;SDS011;16946;49.984;10.672;2023-02-15T02:18:35;82.22;;;27.50;;
30133;SDS011;16946;49.984;10.672;2023-02-15T02:20:01;77.55;;;27.75;;
30133;SDS011;16946;49.984;10.672;2023-02-15T02:21:19;80.63;;;27.20;;
30133;SDS011;16946;49.984;10.672;2023-02-15T02:24:13;61.03;;;23.90;;
30133;SDS011;16946;49.984;10.672;2023-02-15T02:25:59;67.97;;;25.58;;
30133;SDS011;16946;49.984;10.672;2023-02-15T02:27:41;63.53;;;24.60;;
30133;SDS011;16946;49.984;10.672;2023-02-15T02:31:25;99.00;;;28.05;;
30133;SDS011;16946;49.984;10.672;2023-02-15T02:35:40;73.68;;;27.05;;
30133;SDS011;16946;49.984;10.672;2023-02-15T02:36:36;86.82;;;26.33;;
30133;SDS011;16946;49.984;10.672;2023-02-15T02:37:30;118.13;;;28.50;;
30133;SDS011;16946;49.984;10.672;2023-02-15T02:38:38;98.15;;;26.60;;
30133;SDS011;16946;49.984;10.672;2023-02-15T02:39:17;107.18;;;25.83;;
30133;SDS011;16946;49.984;10.672;2023-02-15T02:42:18;131.02;;;27.88;;
30133;SDS011;16946;49.984;10.672;2023-02-15T02:44:13;94.65;;;26.27;;
30133;SDS011;16946;49.984;10.672;2023-02-15T02:44:49;121.63;;;27.88;;
30133;SDS011;16946;49.984;10.672;2023-02-15T02:45:39;121.47;;;30.73;;
30133;SDS011;16946;49.984;10.672;2023-02-15T02:46:22;105.72;;;29.13;;
30133;SDS011;16946;49.984;10.672;2023-02-15T02:46:59;113.07;;;31.67;;
30133;SDS011;16946;49.984;10.672;2023-02-15T02:48:22;114.93;;;32.38;;
30133;SDS011;16946;49.984;10.672;2023-02-15T02:48:55;120.07;;;29.77;;
30133;SDS011;16946;49.984;10.672;2023-02-15T02:49:30;132.25;;;30.08;;
30133;SDS011;16946;49.984;10.672;2023-02-15T02:50:10;132.48;;;29.77;;
30133;SDS011;16946;49.984;10.672;2023-02-15T02:50:45;124.75;;;29.08;;
30133;SDS011;16946;49.984;10.672;2023-02-15T02:51:15;123.67;;;31.67;;
30133;SDS011;16946;49.984;10.672;2023-02-15T02:51:57;90.85;;;28.90;;
30133;SDS011;16946;49.984;10.672;2023-02-15T02:52:42;99.45;;;29.33;;
30133;SDS011;16946;49.984;10.672;2023-02-15T02:53:14;102.40;;;30.45;;
30133;SDS011;16946;49.984;10.672;2023-02-15T02:53:44;68.10;;;27.00;;
30133;SDS011;16946;49.984;10.672;2023-02-15T02:54:15;92.10;;;30.77;;
30133;SDS011;16946;49.984;10.672;2023-02-15T02:54:46;97.47;;;29.07;;
30133;SDS011;16946;49.984;10.672;2023-02-15T02:55:30;87.80;;;29.23;;
30133;SDS011;16946;49.984;10.672;2023-02-15T02:56:15;87.18;;;27.85;;
30133;SDS011;16946;49.984;10.672;2023-02-15T02:56:51;93.78;;;29.77;;
30133;SDS011;16946;49.984;10.672;2023-02-15T02:57:25;87.15;;;27.75;;
30133;SDS011;16946;49.984;10.672;2023-02-15T02:58:36;79.53;;;26.83;;
30133;SDS011;16946;49.984;10.672;2023-02-15T02:59:18;100.47;;;29.20;;
30133;SDS011;16946;49.984;10.672;2023-02-15T02:59:54;95.65;;;28.60;;
30133;SDS011;16946;49.984;10.672;2023-02-15T03:00:29;99.80;;;28.88;;
30133;SDS011;16946;49.984;10.672;2023-02-15T03:01:20;85.65;;;26.30;;
30133;SDS011;16946;49.984;10.672;2023-02-15T03:01:53;78.90;;;26.27;;
30133;SDS011;16946;49.984;10.672;2023-02-15T03:02:43;85.97;;;26.45;;
30133;SDS011;16946;49.984;10.672;2023-02-15T03:03:19;84.50;;;27.27;;
30133;SDS011;16946;49.984;10.672;2023-02-15T03:04:15;94.68;;;28.05;;
30133;SDS011;16946;49.984;10.672;2023-02-15T03:04:50;84.13;;;26.63;;
30133;SDS011;16946;49.984;10.672;2023-02-15T03:05:28;92.78;;;27.23;;
30133;SDS011;16946;49.984;10.672;2023-02-15T03:06:03;73.40;;;26.83;;
30133;SDS011;16946;49.984;10.672;2023-02-15T03:06:44;86.38;;;26.75;;
30133;SDS011;16946;49.984;10.672;2023-02-15T03:07:27;60.00;;;24.92;;
30133;SDS011;16946;49.984;10.672;2023-02-15T03:08:00;71.80;;;27.00;;
30133;SDS011;16946;49.984;10.672;2023-02-15T03:08:36;80.97;;;26.70;;
30133;SDS011;16946;49.984;10.672;2023-02-15T03:09:57;92.43;;;26.40;;
30133;SDS011;16946;49.984;10.672;2023-02-15T03:10:12;78.43;;;25.70;;
30133;SDS011;16946;49.984;10.672;2023-02-15T03:10:44;55.97;;;24.63;;
30133;SDS011;16946;49.984;10.672;2023-02-15T03:11:14;78.70;;;24.93;;
30133;SDS011;16946;49.984;10.672;2023-02-15T03:11:45;76.20;;;26.73;;
30133;SDS011;16946;49.984;10.672;2023-02-15T03:12:26;99.15;;;26.27;;
30133;SDS011;16946;49.984;10.672;2023-02-15T03:13:01;82.80;;;24.70;;
30133;SDS011;16946;49.984;10.672;2023-02-15T03:13:32;68.97;;;24.58;;
30133;SDS011;16946;49.984;10.672;2023-02-15T03:14:03;84.18;;;25.63;;
30133;SDS011;16946;49.984;10.672;2023-02-15T03:14:34;93.47;;;26.13;;
30133;SDS011;16946;49.984;10.672;2023-02-15T03:15:41;80.63;;;25.25;;
30133;SDS011;16946;49.984;10.672;2023-02-15T03:16:32;56.78;;;23.45;;
30133;SDS011;16946;49.984;10.672;2023-02-15T03:17:03;61.65;;;24.30;;
30133;SDS011;16946;49.984;10.672;2023-02-15T03:17:36;64.78;;;23.10;;
30133;SDS011;16946;49.984;10.672;2023-02-15T03:18:10;59.95;;;23.15;;
30133;SDS011;16946;49.984;10.672;2023-02-15T03:18:45;53.47;;;23.40;;
30133;SDS011;16946;49.984;10.672;2023-02-15T03:19:23;55.17;;;22.80;;
30133;SDS011;16946;49.984;10.672;2023-02-15T03:20:01;57.13;;;21.75;;
30133;SDS011;16946;49.984;10.672;2023-02-15T03:20:36;56.85;;;22.17;;
30133;SDS011;16946;49.984;10.672;2023-02-15T03:21:07;53.30;;;22.75;;
30133;SDS011;16946;49.984;10.672;2023-02-15T03:21:53;49.15;;;21.42;;
30133;SDS011;16946;49.984;10.672;2023-02-15T03:22:28;46.08;;;21.58;;
30133;SDS011;16946;49.984;10.672;2023-02-15T03:23:06;51.20;;;22.48;;
30133;SDS011;16946;49.984;10.672;2023-02-15T03:23:43;49.50;;;22.00;;
30133;SDS011;16946;49.984;10.672;2023-02-15T03:24:14;58.30;;;22.37;;
30133;SDS011;16946;49.984;10.672;2023-02-15T03:24:52;52.63;;;21.77;;
30133;SDS011;16946;49.984;10.672;2023-02-15T03:25:27;44.38;;;19.85;;
30133;SDS011;16946;49.984;10.672;2023-02-15T03:26:04;46.40;;;20.02;;
30133;SDS011;16946;49.984;10.672;2023-02-15T03:26:36;44.10;;;20.60;;
30133;SDS011;16946;49.984;10.672;2023-02-15T03:27:11;45.35;;;19.80;;
30133;SDS011;16946;49.984;10.672;2023-02-15T03:27:49;48.17;;;20.30;;
30133;SDS011;16946;49.984;10.672;2023-02-15T03:28:29;52.17;;;21.27;;
30133;SDS011;16946;49.984;10.672;2023-02-15T03:29:04;55.60;;;20.67;;
30133;SDS011;16946;49.984;10.672;2023-02-15T03:29:37;51.90;;;21.90;;
30133;SDS011;16946;49.984;10.672;2023-02-15T03:30:09;58.75;;;22.65;;
30133;SDS011;16946;49.984;10.672;2023-02-15T03:30:42;95.45;;;28.23;;
30133;SDS011;16946;49.984;10.672;2023-02-15T03:31:15;68.85;;;24.60;;
30133;SDS011;16946;49.984;10.672;2023-02-15T03:31:49;68.45;;;23.95;;
30133;SDS011;16946;49.984;10.672;2023-02-15T03:32:25;126.88;;;28.27;;
30133;SDS011;16946;49.984;10.672;2023-02-15T03:32:58;105.82;;;27.85;;
30133;SDS011;16946;49.984;10.672;2023-02-15T03:33:30;93.22;;;28.38;;
30133;SDS011;16946;49.984;10.672;2023-02-15T03:34:02;105.15;;;28.17;;
30133;SDS011;16946;49.984;10.672;2023-02-15T03:34:35;101.78;;;26.50;;
30133;SDS011;16946;49.984;10.672;2023-02-15T03:35:06;100.03;;;25.77;;
30133;SDS011;16946;49.984;10.672;2023-02-15T03:35:45;87.93;;;28.63;;
30133;SDS011;16946;49.984;10.672;2023-02-15T03:36:26;78.30;;;26.23;;
30133;SDS011;16946;49.984;10.672;2023-02-15T03:37:11;82.25;;;26.98;;